createdAt,value
2022-10-05T00:00:02.310Z,43.851831530624175
2022-10-05T00:15:01.925Z,44.35461638614626
2022-10-05T00:30:01.597Z,43.86041243368763
2022-10-05T00:45:02.204Z,43.82768386452828
2022-10-05T01:00:01.836Z,44.23941256910829
2022-10-05T01:15:01.451Z,43.9667585914453
2022-10-05T01:30:02.088Z,44.01292191703005
2022-10-05T01:45:01.708Z,44.21233218089136
2022-10-05T02:00:02.326Z,44.40024451432317
2022-10-05T02:15:01.972Z,44.127264016841785
2022-10-05T02:30:01.651Z,44.00245280991642
2022-10-05T02:45:02.288Z,44.03235594949345
2022-10-05T03:00:01.905Z,43.99324110315418
2022-10-05T03:15:01.554Z,44.734842055335164
2022-10-05T03:30:02.204Z,45.11459302342152
2022-10-05T03:45:01.822Z,45.603092349659086
2022-10-05T04:00:01.444Z,45.090106758697495
2022-10-05T04:15:02.051Z,44.896461570437886
2022-10-05T04:30:01.674Z,44.81802375544539
2022-10-05T04:45:01.668Z,44.50054049028133
2022-10-05T05:00:02.384Z,45.060039916581275
2022-10-05T05:15:02.059Z,45.205525636946255
2022-10-05T05:30:01.749Z,45.284262152641105
2022-10-05T05:45:02.367Z,44.8188654485836
2022-10-05T06:00:01.969Z,45.07920040899931
2022-10-05T06:15:01.604Z,45.12704403603388
2022-10-05T06:30:02.234Z,44.62021147822538
2022-10-05T06:45:01.833Z,43.48303102618846
2022-10-05T07:00:02.428Z,42.19866904599594
2022-10-05T07:15:02.055Z,41.05869880808314
2022-10-05T07:30:01.661Z,42.14921938389953
2022-10-05T07:45:02.266Z,42.55824948793592
2022-10-05T08:00:01.874Z,42.22452844711923
2022-10-05T08:15:01.481Z,42.24182317163776
2022-10-05T08:30:02.127Z,42.742615277528216
2022-10-05T08:45:01.738Z,42.66779224790556
2022-10-05T09:00:02.335Z,42.8979283772712
2022-10-05T09:15:24.238Z,39.24584179996901
2022-10-05T09:30:02.080Z,38.66351517346864
2022-10-05T09:45:01.699Z,37.40062963571867
2022-10-05T10:00:02.308Z,36.84354953640489
2022-10-05T10:15:02.800Z,36.296154653056696
2022-10-05T10:30:01.821Z,35.35816245591758
2022-10-05T10:45:01.446Z,35.12382048720388
2022-10-05T11:00:02.071Z,34.83250973409048
2022-10-05T11:15:01.737Z,35.80529715631157
2022-10-05T11:30:01.412Z,35.276903956146874
2022-10-05T11:45:02.046Z,33.848335528199364
2022-10-05T12:00:01.649Z,33.008874447585875
2022-10-05T12:15:02.254Z,31.635398214262725
2022-10-05T12:30:01.892Z,29.51663988167175
2022-10-05T12:45:01.502Z,28.720360644425007
2022-10-05T13:00:02.141Z,30.310203007461354
2022-10-05T13:15:01.781Z,26.919879329714565
2022-10-05T13:30:01.452Z,27.10411857911735
2022-10-05T13:45:02.184Z,27.61861830534865
2022-10-05T14:00:01.809Z,26.33462522264578
2022-10-05T14:15:01.439Z,27.059908188955454
2022-10-05T14:30:02.123Z,26.404697544973878
2022-10-05T14:45:01.801Z,27.409561409471095
2022-10-05T15:00:01.418Z,28.01835391165518
2022-10-05T15:15:02.055Z,28.00574122151445
2022-10-05T15:30:01.726Z,29.34728748930706
2022-10-05T15:45:01.379Z,30.491015112850384
2022-10-05T16:00:02.029Z,32.02705005827676
2022-10-05T16:15:01.727Z,34.84443816954861
2022-10-05T16:30:01.403Z,38.18724211113732
2022-10-05T16:45:02.020Z,39.243187077134934
2022-10-05T17:00:01.645Z,40.231468845125825
2022-10-05T17:15:01.288Z,40.92137656328403
2022-10-05T17:30:02.006Z,41.17608830705769
2022-10-05T17:45:01.730Z,41.39599470967872
2022-10-05T18:00:01.975Z,41.852523785555725
2022-10-05T18:15:01.902Z,42.348750493128044
2022-10-05T18:30:01.580Z,41.65039008104928
2022-10-05T18:45:01.230Z,41.76647610707274
2022-10-05T19:00:01.852Z,41.691176544822795
2022-10-05T19:15:01.453Z,41.65033685979589
2022-10-05T19:30:01.115Z,41.644289299123365
2022-10-05T19:45:01.758Z,41.85788305344373
2022-10-05T20:00:01.364Z,42.00799028809117
2022-10-05T20:15:00.947Z,41.74826383571916
2022-10-05T20:30:01.564Z,41.96801021408053
2022-10-05T20:45:01.545Z,42.025998998624424
2022-10-05T21:00:02.179Z,41.99743156382963
2022-10-05T21:15:02.144Z,42.101659169719845
2022-10-05T21:30:01.782Z,42.148253354945545
2022-10-05T21:45:02.414Z,42.258483277494086
2022-10-05T22:00:02.007Z,42.51892886100644
2022-10-05T22:15:01.656Z,42.784996576627044
2022-10-05T22:30:02.319Z,44.76226664141978
2022-10-05T22:45:01.942Z,48.51856713777336
2022-10-05T23:00:01.560Z,48.71486450499411
2022-10-05T23:15:02.164Z,51.3294559683259
2022-10-05T23:30:01.800Z,50.77105102551843
2022-10-05T23:45:02.410Z,49.26523194129145
